Reedsville, WI (54230)

3:23 AM CDT on April 21, 2015 (GMT -0500)
south Wayside | | Change Station
CLOSE
Current Station
Personal Weather Station
Location: Reedsville, WI
Elevation: 863 ft
Nearby Weather Stations

Elev 863 ft 44.23 °N, 87.96 °W | Updated 9 minutes ago

Overcast
Overcast
39.3 °F
Feels Like 34 °F
N
8.0
Wind Variable Wind from West
Gusts 18.0 mph

Today
High -- | Low -- °F
--% Chance of Precip.
Yesterday
High -- | Low -- °F
Precip. -- in
5:58 AM 7:43 PM
Waxing Crescent, 9% visible
Pressure 29.49 in
Visibility 10.0 miles
Clouds Mostly Cloudy 3600 ft
Overcast 4500 ft
Windchill 34 °F
Dew Point 33 °F
Humidity 79%
Rainfall 0.00 in
Snow Depth Not available.
UV 0 out of 12
Pollen 4.40 out of 12
Air Quality Not available.
Flu Activity Local Activity
METAR KMTW 210756Z AUTO 25012KT 10SM -RA BKN036 OVC045 05/M01 A2943 RMK AO2 RAE05B40 SLP987 P0000 T00501006

More Conditions Fewer Conditions

Pressure 29.49 in
Visibility 10.0 miles
Clouds Mostly Cloudy 3600 ft
Overcast 4500 ft
Windchill 34 °F
Dew Point 33 °F
Humidity 79%
Rainfall 0.00 in
Snow Depth Not available.
UV 0 out of 12
Pollen 4.40 out of 12
Air Quality Not available.
Flu Activity Local Activity
METAR KMTW 210756Z AUTO 25012KT 10SM -RA BKN036 OVC045 05/M01 A2943 RMK AO2 RAE05B40 SLP987 P0000 T00501006

More Conditions Fewer Conditions

10-Day Weather Forecast

Almanac

Astronomy

Apr. 21, 2015 Rise Set
Actual Time
Civil Twilight
Nautical Twilight
Astronomical Twilight
Moon
Length of Visible Light
Length of Day
Tomorrow will be .
, % of the Moon is Illuminated

Today's Extremes

State Highs State Lows

Community

WunderPhotos

Upload Photos

1,815,327 photos uploaded!

WunderBlogs® & News

Nearby

Air Quality

  Air Quality AQ Index Pollutant
Not available.

Snow Depth

Station Depth Elevation

Earthquake Activity

City Distance Mag. Time & Date
Minimum magnitude displayed is 2.5.

Coastal Water Temperatures

Place Temperature

Stations

Nearby Weather Stations

Station Location Temp. Windchill Dew Point Humidity Wind Precip. Elev Updated Type